createdAt,value
2022-10-09T00:01:08.187Z,96061.38
2022-10-09T00:03:36.997Z,95909.56
2022-10-09T00:06:05.513Z,96052.00
2022-10-09T00:08:34.398Z,96055.47
2022-10-09T00:11:08.933Z,95748.53
2022-10-09T00:13:36.193Z,95784.66
2022-10-09T00:16:05.498Z,96047.09
2022-10-09T00:18:32.857Z,96043.47
2022-10-09T00:20:59.716Z,96043.47
2022-10-09T00:23:26.695Z,96032.94
2022-10-09T00:25:54.754Z,96036.56
2022-10-09T00:28:23.584Z,96043.78
2022-10-09T00:30:51.244Z,96037.25
2022-10-09T00:33:18.969Z,95991.66
2022-10-09T00:35:46.139Z,96038.06
2022-10-09T00:38:13.691Z,95992.38
2022-10-09T00:40:41.024Z,96022.44
2022-10-09T00:43:15.837Z,96024.69
2022-10-09T00:45:50.291Z,96027.31
2022-10-09T00:48:18.580Z,96035.91
2022-10-09T00:50:49.918Z,96021.94
2022-10-09T00:53:19.263Z,95885.97
2022-10-09T00:55:46.361Z,96041.03
2022-10-09T00:58:14.439Z,96002.84
2022-10-09T01:00:41.848Z,96016.66
2022-10-09T01:03:08.920Z,95776.47
2022-10-09T01:06:04.973Z,95915.00
2022-10-09T01:08:55.542Z,96019.59
2022-10-09T01:11:44.733Z,96026.91
2022-10-09T01:14:17.294Z,96019.59
2022-10-09T01:17:01.971Z,95875.47
2022-10-09T01:20:05.950Z,96009.97
2022-10-09T01:23:01.967Z,96019.78
2022-10-09T01:25:36.498Z,96024.09
2022-10-09T01:28:07.613Z,95788.34
2022-10-09T01:30:35.595Z,95994.78
2022-10-09T01:33:03.396Z,96019.47
2022-10-09T01:35:31.239Z,95906.50
2022-10-09T01:37:59.849Z,95839.84
2022-10-09T01:40:28.989Z,95852.81
2022-10-09T01:42:56.778Z,95875.50
2022-10-09T01:45:23.644Z,95895.31
2022-10-09T01:47:50.597Z,96045.69
2022-10-09T01:50:30.658Z,95907.72
2022-10-09T01:53:02.000Z,96017.56
2022-10-09T01:55:38.144Z,96020.88
2022-10-09T01:58:17.057Z,95768.00
2022-10-09T02:00:51.996Z,95811.41
2022-10-09T02:03:19.611Z,95733.50
2022-10-09T02:05:50.226Z,95862.50
2022-10-09T02:08:20.224Z,96054.69
2022-10-09T02:10:50.442Z,95864.69
2022-10-09T02:13:18.548Z,95895.25
2022-10-09T02:16:37.159Z,96031.53
2022-10-09T02:19:13.621Z,96067.88
2022-10-09T02:21:46.548Z,95742.69
2022-10-09T02:24:18.636Z,95912.03
2022-10-09T02:26:46.052Z,95861.19
2022-10-09T02:29:15.539Z,95913.63
2022-10-09T02:31:44.133Z,96049.25
2022-10-09T02:34:20.468Z,96063.31
2022-10-09T02:36:48.138Z,96081.25
2022-10-09T02:39:15.155Z,95968.59
2022-10-09T02:41:42.317Z,95892.97
2022-10-09T02:44:09.291Z,96049.34
2022-10-09T02:46:36.218Z,95919.13
2022-10-09T02:49:03.309Z,95927.75
2022-10-09T02:51:30.166Z,95866.75
2022-10-09T02:53:56.931Z,95878.13
2022-10-09T02:56:24.417Z,95727.50
2022-10-09T02:58:51.350Z,96018.53
2022-10-09T03:01:18.588Z,95753.00
2022-10-09T03:03:46.025Z,96058.50
2022-10-09T03:06:21.831Z,95951.44
2022-10-09T03:08:50.776Z,95935.31
2022-10-09T03:11:19.582Z,96042.41
2022-10-09T03:13:47.354Z,96065.53
2022-10-09T03:16:25.651Z,96070.00
2022-10-09T03:18:53.465Z,95894.25
2022-10-09T03:21:25.790Z,95873.91
2022-10-09T03:23:53.436Z,95857.50
2022-10-09T03:26:23.128Z,95918.09
2022-10-09T03:28:51.916Z,95883.13
2022-10-09T03:34:08.329Z,95780.31
2022-10-09T03:36:35.477Z,96096.47
2022-10-09T03:39:02.352Z,95891.06
2022-10-09T03:41:29.157Z,95922.00
2022-10-09T03:43:56.234Z,95937.09
2022-10-09T03:46:23.097Z,95959.59
2022-10-09T03:48:50.141Z,95933.16
2022-10-09T03:51:17.535Z,95964.53
2022-10-09T03:53:44.334Z,95889.00
2022-10-09T03:56:11.455Z,95859.63
2022-10-09T03:58:38.400Z,96081.72
2022-10-09T04:01:05.282Z,96029.69
2022-10-09T04:03:32.305Z,95885.38
2022-10-09T04:05:59.259Z,96056.16
2022-10-09T04:08:26.094Z,96108.44
2022-10-09T04:10:58.332Z,95921.22
2022-10-09T04:13:25.316Z,95981.69
2022-10-09T04:15:53.713Z,95990.84
2022-10-09T04:18:20.812Z,95973.47
2022-10-09T04:20:55.347Z,96079.84
2022-10-09T04:23:25.040Z,96046.91
2022-10-09T04:25:56.353Z,96043.47
2022-10-09T04:28:23.465Z,96042.81
2022-10-09T04:30:50.545Z,96059.91
2022-10-09T04:33:18.016Z,96078.91
2022-10-09T04:35:46.624Z,96072.22
2022-10-09T04:38:13.397Z,96095.34
2022-10-09T04:40:41.180Z,96093.19
2022-10-09T04:43:08.268Z,95948.94
2022-10-09T04:45:39.786Z,96133.47
2022-10-09T04:48:06.984Z,95959.84
2022-10-09T04:50:34.135Z,95954.53
2022-10-09T04:53:01.028Z,95917.25
2022-10-09T04:55:27.896Z,95979.28
2022-10-09T04:57:54.842Z,95924.97
2022-10-09T05:00:21.695Z,95935.75
2022-10-09T05:02:48.998Z,96130.44
2022-10-09T05:05:16.137Z,95971.31
2022-10-09T05:07:42.938Z,96109.53
2022-10-09T05:10:10.058Z,96139.53
2022-10-09T05:12:37.299Z,96146.28
2022-10-09T05:15:04.876Z,96174.50
2022-10-09T05:17:31.900Z,96122.66
2022-10-09T05:19:58.951Z,95919.25
2022-10-09T05:22:25.733Z,95992.06
2022-10-09T05:24:52.669Z,96122.28
2022-10-09T05:27:20.032Z,95871.56
2022-10-09T05:29:46.986Z,96044.75
2022-10-09T05:32:13.990Z,96147.06
2022-10-09T05:34:40.821Z,95825.59
2022-10-09T05:37:07.619Z,96141.25
2022-10-09T05:39:34.862Z,95927.31
2022-10-09T05:42:02.275Z,96172.84
2022-10-09T05:44:29.052Z,96145.53
2022-10-09T05:46:56.305Z,96173.63
2022-10-09T05:49:23.075Z,95984.84
2022-10-09T05:51:49.859Z,95970.06
2022-10-09T05:54:18.359Z,96141.06
2022-10-09T05:56:45.500Z,96154.25
2022-10-09T05:59:17.470Z,95942.28
2022-10-09T06:01:46.754Z,96178.56
2022-10-09T06:04:18.497Z,96170.78
2022-10-09T06:06:46.479Z,96048.31
2022-10-09T06:09:13.732Z,96168.06
2022-10-09T06:11:41.788Z,96084.84
2022-10-09T06:14:11.056Z,96178.81
2022-10-09T06:16:40.936Z,96201.06
2022-10-09T06:19:08.721Z,96056.00
2022-10-09T06:21:35.732Z,96057.91
2022-10-09T06:24:04.995Z,96078.81
2022-10-09T06:26:32.920Z,96181.72
2022-10-09T06:29:01.228Z,96183.50
2022-10-09T06:31:31.108Z,96188.97
2022-10-09T06:34:02.220Z,96193.63
2022-10-09T06:36:32.708Z,95933.41
2022-10-09T06:39:01.825Z,96207.44
2022-10-09T06:41:30.063Z,96193.91
2022-10-09T06:44:02.262Z,96194.22
2022-10-09T06:46:34.331Z,96194.81
2022-10-09T06:49:02.073Z,96048.34
2022-10-09T06:51:29.998Z,96161.56
2022-10-09T06:53:58.798Z,96201.69
2022-10-09T06:56:27.554Z,96034.75
2022-10-09T06:58:55.023Z,96164.91
2022-10-09T07:01:25.240Z,96142.91
2022-10-09T07:03:57.975Z,96229.47
2022-10-09T07:06:27.976Z,96198.44
2022-10-09T07:09:00.782Z,96190.56
2022-10-09T07:11:39.223Z,96057.34
2022-10-09T07:14:09.334Z,96214.19
2022-10-09T07:16:42.253Z,96199.03
2022-10-09T07:19:09.999Z,96201.09
2022-10-09T07:21:38.505Z,96096.97
2022-10-09T07:24:06.494Z,96179.91
2022-10-09T07:26:36.863Z,96174.66
2022-10-09T07:29:05.856Z,96035.38
2022-10-09T07:31:32.737Z,96071.97
2022-10-09T07:34:00.218Z,96064.38
2022-10-09T07:36:27.821Z,95967.94
2022-10-09T07:38:57.191Z,96200.91
2022-10-09T07:41:26.498Z,96079.66
2022-10-09T07:43:53.374Z,96217.03
2022-10-09T07:46:22.145Z,96197.50
2022-10-09T07:48:50.236Z,95966.66
2022-10-09T07:51:25.793Z,96204.53
2022-10-09T07:53:53.714Z,96205.25
2022-10-09T07:56:22.855Z,96184.69
2022-10-09T07:58:51.358Z,96202.16
2022-10-09T08:01:20.583Z,96203.94
2022-10-09T08:03:48.174Z,96028.41
2022-10-09T08:06:15.776Z,96195.50
2022-10-09T08:08:43.172Z,96154.81
2022-10-09T08:11:15.513Z,96186.84
2022-10-09T08:13:43.673Z,96030.44
2022-10-09T08:16:10.979Z,96027.94
2022-10-09T08:18:38.058Z,96075.66
2022-10-09T08:21:07.796Z,96178.03
2022-10-09T08:23:35.540Z,96170.31
2022-10-09T08:26:03.035Z,96002.25
2022-10-09T08:28:30.271Z,96081.78
2022-10-09T08:30:57.446Z,96015.72
2022-10-09T08:33:24.308Z,96052.66
2022-10-09T08:35:51.952Z,96180.69
2022-10-09T08:38:44.979Z,96065.81
2022-10-09T08:41:33.700Z,96067.84
2022-10-09T08:44:23.619Z,96083.28
2022-10-09T08:46:53.723Z,96167.28
2022-10-09T08:49:48.954Z,96044.66
2022-10-09T08:52:37.413Z,96154.00
2022-10-09T08:55:26.265Z,96146.03
2022-10-09T08:57:56.511Z,96021.97
2022-10-09T09:00:27.281Z,96031.81
2022-10-09T09:03:06.013Z,96142.81
2022-10-09T09:05:58.270Z,96139.56
2022-10-09T09:08:33.132Z,96133.59
2022-10-09T09:11:23.301Z,96133.41
2022-10-09T09:13:57.736Z,96107.00
2022-10-09T09:16:46.035Z,96144.34
2022-10-09T09:19:33.087Z,96108.53
2022-10-09T09:22:00.389Z,96003.38
2022-10-09T09:24:47.817Z,96134.97
2022-10-09T09:27:18.018Z,96004.72
2022-10-09T09:29:54.738Z,96009.84
2022-10-09T09:32:24.248Z,96031.28
2022-10-09T09:34:52.720Z,95990.19
2022-10-09T09:37:19.702Z,96116.94
2022-10-09T09:42:33.774Z,96020.59
2022-10-09T09:45:07.870Z,96024.88
2022-10-09T09:47:41.851Z,96114.41
2022-10-09T09:50:23.379Z,96038.22
2022-10-09T09:52:56.653Z,96142.75
2022-10-09T09:55:26.895Z,96046.91
2022-10-09T09:58:03.509Z,96130.34
2022-10-09T10:00:31.447Z,96133.16
2022-10-09T10:03:12.595Z,95926.38
2022-10-09T10:05:42.907Z,96133.13
2022-10-09T10:08:14.712Z,96014.53
2022-10-09T10:10:46.828Z,96125.09
2022-10-09T10:13:23.232Z,96121.41
2022-10-09T10:15:54.288Z,96062.00
2022-10-09T10:18:23.427Z,96096.88
2022-10-09T10:20:54.657Z,96117.78
2022-10-09T10:23:35.913Z,96128.28
2022-10-09T10:26:35.787Z,96126.69
2022-10-09T10:29:31.553Z,96080.31
2022-10-09T10:32:35.769Z,96120.28
2022-10-09T10:35:13.095Z,96110.66
2022-10-09T10:38:17.665Z,96110.56
2022-10-09T10:40:54.016Z,96055.94
2022-10-09T10:43:46.691Z,96012.09
2022-10-09T10:46:22.691Z,96097.84
2022-10-09T10:48:50.341Z,95970.28
2022-10-09T10:51:43.516Z,96103.38
2022-10-09T10:54:13.074Z,96094.91
2022-10-09T10:56:56.026Z,96086.44
2022-10-09T10:59:35.192Z,96070.28
2022-10-09T11:02:27.048Z,96057.94
2022-10-09T11:05:26.067Z,95950.38
2022-10-09T11:08:07.417Z,95962.25
2022-10-09T11:10:44.512Z,95941.00
2022-10-09T11:13:32.541Z,95938.19
2022-10-09T11:16:08.467Z,96047.16
2022-10-09T11:19:02.698Z,96056.13
2022-10-09T11:21:44.671Z,96046.28
2022-10-09T11:24:29.837Z,96046.03
2022-10-09T11:27:03.346Z,96046.75
2022-10-09T11:29:35.832Z,96050.94
2022-10-09T11:32:11.984Z,96001.03
2022-10-09T11:34:47.084Z,96067.34
2022-10-09T11:37:25.537Z,96027.34
2022-10-09T11:39:52.868Z,96032.41
2022-10-09T11:42:25.691Z,96026.97
2022-10-09T11:48:05.989Z,96019.69
2022-10-09T11:51:06.792Z,96021.38
2022-10-09T11:53:35.380Z,96029.88
2022-10-09T11:56:07.692Z,95889.66
2022-10-09T11:58:36.136Z,96008.59
2022-10-09T12:01:22.386Z,96024.31
2022-10-09T12:04:00.934Z,96031.75
2022-10-09T12:06:29.268Z,96010.13
2022-10-09T12:09:03.779Z,95884.50
2022-10-09T12:11:32.519Z,96007.41
2022-10-09T12:14:02.258Z,95941.25
2022-10-09T12:16:36.678Z,95880.81
2022-10-09T12:19:20.959Z,96004.97
2022-10-09T12:21:56.721Z,95840.81
2022-10-09T12:24:26.302Z,95869.50
2022-10-09T12:26:56.385Z,95917.28
2022-10-09T12:29:32.309Z,96012.38
2022-10-09T12:32:05.379Z,95859.69
2022-10-09T12:34:42.290Z,95983.03
2022-10-09T12:37:12.998Z,95991.81
2022-10-09T12:39:40.801Z,96006.34
2022-10-09T12:42:16.724Z,95851.53
2022-10-09T12:44:45.311Z,95927.16
2022-10-09T12:47:30.707Z,95784.91
2022-10-09T12:49:58.720Z,95991.56
2022-10-09T12:52:25.741Z,95986.19
2022-10-09T12:54:53.140Z,95968.50
2022-10-09T12:57:24.100Z,96010.97
2022-10-09T12:59:54.936Z,95970.97
2022-10-09T13:02:22.617Z,96019.03
2022-10-09T13:04:59.742Z,95993.06
2022-10-09T13:07:29.257Z,95992.91
2022-10-09T13:10:02.494Z,95892.19
2022-10-09T13:12:30.898Z,95934.84
2022-10-09T13:15:34.154Z,95885.03
2022-10-09T13:18:12.376Z,95993.84
2022-10-09T13:20:42.260Z,96003.19
2022-10-09T13:23:27.821Z,95847.03
2022-10-09T13:25:54.957Z,95898.53
2022-10-09T13:28:22.209Z,95895.66
2022-10-09T13:30:49.884Z,95873.72
2022-10-09T13:33:17.435Z,95888.41
2022-10-09T13:35:44.621Z,95823.28
2022-10-09T13:38:18.893Z,95857.81
2022-10-09T13:40:46.346Z,95982.75
2022-10-09T13:43:21.796Z,95983.66
2022-10-09T13:45:48.970Z,95852.41
2022-10-09T13:48:15.817Z,95987.94
2022-10-09T13:50:42.713Z,95916.22
2022-10-09T13:53:09.851Z,95859.91
2022-10-09T13:55:36.747Z,95980.22
2022-10-09T13:58:04.182Z,95823.94
2022-10-09T14:00:31.262Z,95978.09
2022-10-09T14:02:58.306Z,95979.13
2022-10-09T14:05:25.181Z,95993.94
2022-10-09T14:07:52.349Z,95835.72
2022-10-09T14:10:23.592Z,95865.47
2022-10-09T14:12:51.914Z,96006.09
2022-10-09T14:15:19.137Z,95843.69
2022-10-09T14:17:46.338Z,95765.94
2022-10-09T14:20:13.819Z,95903.09
2022-10-09T14:22:50.438Z,95967.38
2022-10-09T14:25:17.690Z,96007.31
2022-10-09T14:27:44.719Z,95817.59
2022-10-09T14:30:15.097Z,95976.34
2022-10-09T14:32:42.059Z,95860.72
2022-10-09T14:35:09.176Z,95888.41
2022-10-09T14:37:41.697Z,95889.50
2022-10-09T14:40:10.726Z,95877.72
2022-10-09T14:42:38.388Z,95804.03
2022-10-09T14:45:06.017Z,95947.56
2022-10-09T14:47:32.970Z,95875.94
2022-10-09T14:49:59.837Z,95988.81
2022-10-09T14:52:26.673Z,95996.44
2022-10-09T14:54:53.648Z,95877.75
2022-10-09T14:57:20.693Z,95848.94
2022-10-09T14:59:47.558Z,95879.84
2022-10-09T15:02:18.258Z,95880.81
2022-10-09T15:04:45.753Z,96023.53
2022-10-09T15:07:12.590Z,96041.63
2022-10-09T15:09:39.557Z,95728.91
2022-10-09T15:12:06.713Z,96028.53
2022-10-09T15:14:34.295Z,96017.31
2022-10-09T15:17:01.327Z,95827.31
2022-10-09T15:19:28.236Z,96009.03
2022-10-09T15:21:54.938Z,96027.69
2022-10-09T15:24:21.834Z,95880.91
2022-10-09T15:26:49.049Z,96027.38
2022-10-09T15:29:15.912Z,96040.06
2022-10-09T15:31:42.870Z,95854.69
2022-10-09T15:34:16.624Z,95872.44
2022-10-09T15:36:43.892Z,95963.53
2022-10-09T15:39:11.019Z,96042.75
2022-10-09T15:41:40.253Z,95857.94
2022-10-09T15:44:18.317Z,95904.78
2022-10-09T15:46:46.905Z,96035.59
2022-10-09T15:49:13.970Z,96055.44
2022-10-09T15:51:41.337Z,95817.53
2022-10-09T15:54:08.176Z,96008.75
2022-10-09T15:56:39.632Z,96055.28
2022-10-09T15:59:08.265Z,95949.88
2022-10-09T16:01:35.148Z,95926.13
2022-10-09T16:04:02.137Z,95957.56
2022-10-09T16:06:29.253Z,96115.56
2022-10-09T16:08:58.093Z,95954.78
2022-10-09T16:11:26.445Z,95955.91
2022-10-09T16:13:54.868Z,95962.16
2022-10-09T16:16:24.632Z,96080.63
2022-10-09T16:18:53.988Z,96088.78
2022-10-09T16:21:26.750Z,95957.13
2022-10-09T16:23:58.868Z,96102.59
2022-10-09T16:26:33.305Z,96107.78
2022-10-09T16:29:00.858Z,96044.13
2022-10-09T16:31:31.292Z,96101.19
2022-10-09T16:33:58.541Z,95878.84
2022-10-09T16:36:25.710Z,96108.38
2022-10-09T16:38:53.182Z,95865.47
2022-10-09T16:41:21.978Z,96118.69
2022-10-09T16:43:52.211Z,96112.81
2022-10-09T16:46:21.780Z,96124.38
2022-10-09T16:48:50.389Z,96149.03
2022-10-09T16:51:20.779Z,96017.84
2022-10-09T16:53:53.021Z,96002.84
2022-10-09T16:56:23.986Z,96133.97
2022-10-09T16:58:56.189Z,96076.25
2022-10-09T17:01:27.674Z,96130.84
2022-10-09T17:03:56.775Z,96097.88
2022-10-09T17:06:25.700Z,96141.22
2022-10-09T17:08:55.528Z,95974.63
2022-10-09T17:11:24.058Z,96143.88
2022-10-09T17:13:52.541Z,96151.00
2022-10-09T17:16:22.389Z,96144.53
2022-10-09T17:18:50.194Z,96117.28
2022-10-09T17:21:18.334Z,96139.38
2022-10-09T17:23:45.837Z,96011.88
2022-10-09T17:26:18.427Z,96139.78
2022-10-09T17:28:47.154Z,95882.78
2022-10-09T17:31:17.736Z,96113.59
2022-10-09T17:33:46.065Z,95804.00
2022-10-09T17:36:22.064Z,96065.06
2022-10-09T17:38:50.363Z,96040.13
2022-10-09T17:41:19.955Z,96176.28
2022-10-09T17:43:46.915Z,96160.91
2022-10-09T17:46:15.222Z,96161.53
2022-10-09T17:48:42.217Z,96222.25
2022-10-09T17:51:13.344Z,96067.47
2022-10-09T17:53:40.227Z,96073.63
2022-10-09T17:56:07.076Z,96187.28
2022-10-09T17:58:34.096Z,96058.22
2022-10-09T18:01:08.672Z,96192.16
2022-10-09T18:03:36.096Z,96143.84
2022-10-09T18:06:10.554Z,96074.16
2022-10-09T18:08:38.712Z,96116.22
2022-10-09T18:11:08.819Z,96194.44
2022-10-09T18:13:37.744Z,96195.69
2022-10-09T18:16:06.499Z,96151.97
2022-10-09T18:18:33.531Z,96225.31
2022-10-09T18:21:05.778Z,96196.50
2022-10-09T18:23:33.445Z,96173.03
2022-10-09T18:26:01.603Z,96219.56
2022-10-09T18:28:28.909Z,96216.75
2022-10-09T18:30:56.052Z,95957.97
2022-10-09T18:33:23.273Z,96206.25
2022-10-09T18:35:50.675Z,96198.25
2022-10-09T18:38:23.133Z,96072.91
2022-10-09T18:40:50.054Z,96205.94
2022-10-09T18:43:17.355Z,96085.59
2022-10-09T18:45:47.659Z,96034.03
2022-10-09T18:48:18.626Z,96064.41
2022-10-09T18:50:48.512Z,96094.91
2022-10-09T18:53:15.695Z,96250.41
2022-10-09T18:55:43.791Z,96234.75
2022-10-09T18:58:12.667Z,96084.97
2022-10-09T19:00:39.923Z,96234.66
2022-10-09T19:03:06.957Z,96051.06
2022-10-09T19:05:34.219Z,96243.78
2022-10-09T19:08:01.000Z,96097.97
2022-10-09T19:10:27.950Z,96050.19
2022-10-09T19:12:54.853Z,96134.19
2022-10-09T19:15:21.904Z,96280.69
2022-10-09T19:17:49.305Z,95958.44
2022-10-09T19:20:16.859Z,96333.59
2022-10-09T19:22:43.777Z,96051.72
2022-10-09T19:25:10.833Z,96042.81
2022-10-09T19:27:37.749Z,95942.34
2022-10-09T19:30:05.554Z,96231.72
2022-10-09T19:32:32.977Z,96024.44
2022-10-09T19:35:00.278Z,96119.25
2022-10-09T19:37:29.724Z,96224.38
2022-10-09T19:39:57.276Z,96150.22
2022-10-09T19:42:24.215Z,96301.56
2022-10-09T19:44:51.057Z,96276.88
2022-10-09T19:47:18.099Z,96266.78
2022-10-09T19:49:45.387Z,96308.78
2022-10-09T19:52:12.254Z,96092.97
2022-10-09T19:54:39.456Z,96065.63
2022-10-09T19:57:06.511Z,96166.69
2022-10-09T19:59:33.336Z,96283.91
2022-10-09T20:02:00.411Z,96169.66
2022-10-09T20:04:27.340Z,96281.09
2022-10-09T20:06:54.107Z,96181.38
2022-10-09T20:09:21.132Z,96167.41
2022-10-09T20:11:48.252Z,96295.75
2022-10-09T20:14:15.050Z,96153.88
2022-10-09T20:16:42.234Z,96304.88
2022-10-09T20:19:09.150Z,96318.75
2022-10-09T20:21:36.132Z,96341.28
2022-10-09T20:24:03.063Z,96222.72
2022-10-09T20:26:30.158Z,96101.72
2022-10-09T20:28:56.959Z,96330.88
2022-10-09T20:31:26.105Z,96303.88
2022-10-09T20:33:54.375Z,96201.41
2022-10-09T20:36:30.335Z,96161.63
2022-10-09T20:39:02.556Z,96286.59
2022-10-09T20:41:33.298Z,96302.47
2022-10-09T20:44:01.391Z,96267.25
2022-10-09T20:46:31.706Z,96339.28
2022-10-09T20:48:59.241Z,96311.75
2022-10-09T20:51:26.463Z,96138.34
2022-10-09T20:53:55.362Z,96274.09
2022-10-09T20:56:23.372Z,96314.38
2022-10-09T20:58:50.984Z,96320.41
2022-10-09T21:01:18.314Z,96186.19
2022-10-09T21:03:45.181Z,96180.28
2022-10-09T21:06:15.137Z,96355.28
2022-10-09T21:08:42.520Z,96327.13
2022-10-09T21:11:12.196Z,96044.44
2022-10-09T21:13:40.148Z,96191.38
2022-10-09T21:16:10.140Z,96079.72
2022-10-09T21:18:38.344Z,96306.97
2022-10-09T21:21:08.861Z,96306.63
2022-10-09T21:23:36.069Z,96160.41
2022-10-09T21:26:03.627Z,96173.41
2022-10-09T21:28:30.902Z,96115.28
2022-10-09T21:30:57.821Z,96151.13
2022-10-09T21:33:24.632Z,96311.66
2022-10-09T21:35:52.254Z,96348.22
2022-10-09T21:38:21.979Z,96064.16
2022-10-09T21:40:49.249Z,96324.69
2022-10-09T21:43:16.549Z,96312.63
2022-10-09T21:45:44.055Z,96324.16
2022-10-09T21:48:15.099Z,96307.09
2022-10-09T21:50:42.200Z,96062.78
2022-10-09T21:53:09.187Z,96296.16
2022-10-09T21:55:37.854Z,96323.22
2022-10-09T21:58:06.015Z,96173.97
2022-10-09T22:00:33.534Z,96160.88
2022-10-09T22:03:00.388Z,96184.03
2022-10-09T22:05:27.290Z,95818.34
2022-10-09T22:07:54.209Z,96299.41
2022-10-09T22:10:21.112Z,96168.34
2022-10-09T22:12:48.302Z,96083.16
2022-10-09T22:15:15.582Z,96170.31
2022-10-09T22:17:42.457Z,96314.19
2022-10-09T22:20:09.614Z,96343.56
2022-10-09T22:22:36.786Z,96323.97
2022-10-09T22:25:04.058Z,96317.78
2022-10-09T22:27:31.060Z,96347.84
2022-10-09T22:29:58.114Z,96342.31
2022-10-09T22:32:24.928Z,96302.16
2022-10-09T22:34:52.056Z,96147.75
2022-10-09T22:37:19.235Z,96230.53
2022-10-09T22:39:46.138Z,96207.78
2022-10-09T22:42:12.969Z,96191.78
2022-10-09T22:44:40.054Z,96340.06
2022-10-09T22:47:06.855Z,96374.69
2022-10-09T22:49:33.855Z,96312.53
2022-10-09T22:52:01.064Z,96216.41
2022-10-09T22:54:27.897Z,96230.56
2022-10-09T22:56:54.828Z,96401.22
2022-10-09T22:59:21.899Z,96100.63
2022-10-09T23:01:54.643Z,96353.78
2022-10-09T23:04:22.989Z,96363.28
2022-10-09T23:06:55.418Z,96219.47
2022-10-09T23:09:24.053Z,96358.13
2022-10-09T23:11:51.049Z,96352.28
2022-10-09T23:14:18.316Z,96379.16
2022-10-09T23:16:45.537Z,96348.97
2022-10-09T23:19:12.861Z,96238.91
2022-10-09T23:21:41.732Z,96277.09
2022-10-09T23:24:10.822Z,96180.47
2022-10-09T23:26:39.789Z,96008.88
2022-10-09T23:29:09.730Z,96104.25
2022-10-09T23:31:37.165Z,96389.22
2022-10-09T23:34:05.336Z,96104.91
2022-10-09T23:36:32.378Z,96138.56
2022-10-09T23:39:03.496Z,96398.94
2022-10-09T23:41:30.665Z,96186.13
2022-10-09T23:43:57.550Z,96338.09
2022-10-09T23:46:27.383Z,96385.75
2022-10-09T23:48:54.657Z,96394.66
2022-10-09T23:51:23.018Z,96230.97
2022-10-09T23:53:50.493Z,96409.63
2022-10-09T23:56:26.034Z,96425.53
2022-10-09T23:58:53.798Z,96278.38
